Doss, Missouri
Current Conditions -  °F | °C
As of 4:58 AM on Monday 20 Oct 2014 (Local Time) from KTBN Reporting Station
Overcast Overcast  
Wind Chill: 55°   Ceiling: 6500
Heat Index: 55°   Visibility: 10mi
Dew Point: 50°   Wind: 3mph
Humidity: 85%   Direction: NA
Pressure: 30.02"   Gusts: NA
Location:  37.5023°N, 91.4546°W
Report Text: KTBN 200958Z AUTO VRB03KT 10SM OVC065 13/10 A3002 RMK AO2 SLP165 T01250100 $
Loading
Personal Weather Stations






























Interactive Weather Map
Tropical Storm Tracking
New forecast layout! Learn more

10-Day Weather Forecast

Advertisements
Track Severe Weather on mobile